KPGD/PGD METAR and TAF weather

Enter ICAO airport designator
Station Type Date Time Source
KPGD METAR 2020/01/27 10:53 UTC NOAA

KPGD 271053Z 17008KT 10SM -RA OVC100 12/11 A2998 RMK AO2 SLP151 P0001 T01170111 $


Station Type Date Time Source
KPGD Decoded METAR 2020/01/27 10:53 UTC NOAA

PUNTA GORDA CHARLOTTE COUNTY, FL, United States (KPGD) 26-55N 82-00W 7M
Jan 27, 2020 - 05:53 AM EST / 2020.01.27 1053 UTC
Wind: from the S (170 degrees) at 9 MPH (8 KT):0
Visibility: 10 mile(s):0
Sky conditions: overcast
Weather: light rain
Precipitation last hour: 0.01 inches
Temperature: 53.1 F (11.7 C)
Dew Point: 52.0 F (11.1 C)
Relative Humidity: 96%
Pressure (altimeter): 29.98 in. Hg (1015 hPa)
ob: KPGD 271053Z 17008KT 10SM -RA OVC100 12/11 A2998 RMK AO2 SLP151 P0001 T01170111
cycle: 11

Station Type Date Time Source
KPGD TAF 2020/01/27 06:27 UTC NOAA

TAF KPGD 270525Z 2706/2806 VRB04KT P6SM SCT250
FM271000 16005KT P6SM SCT070 OVC150
FM271800 19009KT P6SM BKN070
FM280100 VRB03KT P6SM OVC050

Example: see airport list